sensor_id;sensor_type;location;lat;lon;timestamp;P1;durP1;ratioP1;P2;durP2;ratioP2
2039;SDS011;1025;42.686;23.350;2022-08-21T00:01:27;10.60;;;10.00;;
2039;SDS011;1025;42.686;23.350;2022-08-21T00:03:55;11.13;;;10.33;;
2039;SDS011;1025;42.686;23.350;2022-08-21T00:06:21;10.70;;;9.87;;
2039;SDS011;1025;42.686;23.350;2022-08-21T00:08:50;10.30;;;9.60;;
2039;SDS011;1025;42.686;23.350;2022-08-21T00:11:16;9.77;;;8.90;;
2039;SDS011;1025;42.686;23.350;2022-08-21T00:13:43;11.50;;;10.70;;
2039;SDS011;1025;42.686;23.350;2022-08-21T00:16:10;10.00;;;9.30;;
2039;SDS011;1025;42.686;23.350;2022-08-21T00:18:37;11.83;;;10.93;;
2039;SDS011;1025;42.686;23.350;2022-08-21T00:21:04;12.13;;;11.27;;
2039;SDS011;1025;42.686;23.350;2022-08-21T00:23:32;10.80;;;9.90;;
2039;SDS011;1025;42.686;23.350;2022-08-21T00:26:00;11.80;;;10.60;;
2039;SDS011;1025;42.686;23.350;2022-08-21T00:28:27;11.23;;;10.43;;
2039;SDS011;1025;42.686;23.350;2022-08-21T00:30:53;11.97;;;11.07;;
2039;SDS011;1025;42.686;23.350;2022-08-21T00:33:21;12.30;;;11.07;;
2039;SDS011;1025;42.686;23.350;2022-08-21T00:35:48;10.87;;;10.07;;
2039;SDS011;1025;42.686;23.350;2022-08-21T00:38:14;11.07;;;10.07;;
2039;SDS011;1025;42.686;23.350;2022-08-21T00:40:44;10.60;;;9.80;;
2039;SDS011;1025;42.686;23.350;2022-08-21T00:43:14;10.80;;;10.00;;
2039;SDS011;1025;42.686;23.350;2022-08-21T00:45:40;10.07;;;9.37;;
2039;SDS011;1025;42.686;23.350;2022-08-21T00:48:07;10.33;;;9.63;;
2039;SDS011;1025;42.686;23.350;2022-08-21T00:50:35;10.03;;;9.00;;
2039;SDS011;1025;42.686;23.350;2022-08-21T00:53:04;12.17;;;10.97;;
2039;SDS011;1025;42.686;23.350;2022-08-21T00:55:32;9.70;;;9.00;;
2039;SDS011;1025;42.686;23.350;2022-08-21T00:57:59;9.67;;;8.97;;
2039;SDS011;1025;42.686;23.350;2022-08-21T01:00:29;8.77;;;8.27;;
2039;SDS011;1025;42.686;23.350;2022-08-21T01:02:57;10.47;;;9.73;;
2039;SDS011;1025;42.686;23.350;2022-08-21T01:05:24;10.50;;;9.70;;
2039;SDS011;1025;42.686;23.350;2022-08-21T01:07:51;12.60;;;11.60;;
2039;SDS011;1025;42.686;23.350;2022-08-21T01:10:18;11.03;;;8.83;;
2039;SDS011;1025;42.686;23.350;2022-08-21T01:12:45;10.87;;;9.97;;
2039;SDS011;1025;42.686;23.350;2022-08-21T01:15:12;9.77;;;9.07;;
2039;SDS011;1025;42.686;23.350;2022-08-21T01:17:41;10.47;;;9.77;;
2039;SDS011;1025;42.686;23.350;2022-08-21T01:20:08;11.10;;;9.90;;
2039;SDS011;1025;42.686;23.350;2022-08-21T01:22:37;10.27;;;9.37;;
2039;SDS011;1025;42.686;23.350;2022-08-21T01:25:08;14.40;;;11.33;;
2039;SDS011;1025;42.686;23.350;2022-08-21T01:27:35;11.60;;;10.80;;
2039;SDS011;1025;42.686;23.350;2022-08-21T01:30:04;13.30;;;12.30;;
2039;SDS011;1025;42.686;23.350;2022-08-21T01:32:30;11.47;;;10.73;;
2039;SDS011;1025;42.686;23.350;2022-08-21T01:34:57;12.27;;;11.47;;
2039;SDS011;1025;42.686;23.350;2022-08-21T01:37:24;16.53;;;10.40;;
2039;SDS011;1025;42.686;23.350;2022-08-21T01:39:52;12.37;;;11.50;;
2039;SDS011;1025;42.686;23.350;2022-08-21T01:42:18;11.50;;;10.70;;
2039;SDS011;1025;42.686;23.350;2022-08-21T01:44:45;13.27;;;12.27;;
2039;SDS011;1025;42.686;23.350;2022-08-21T01:47:12;11.37;;;10.50;;
2039;SDS011;1025;42.686;23.350;2022-08-21T01:49:39;13.20;;;12.13;;
2039;SDS011;1025;42.686;23.350;2022-08-21T01:52:07;12.70;;;11.60;;
2039;SDS011;1025;42.686;23.350;2022-08-21T01:54:34;14.50;;;12.10;;
2039;SDS011;1025;42.686;23.350;2022-08-21T01:57:02;18.10;;;12.77;;
2039;SDS011;1025;42.686;23.350;2022-08-21T01:59:29;16.10;;;14.67;;
2039;SDS011;1025;42.686;23.350;2022-08-21T02:01:55;20.47;;;18.33;;
2039;SDS011;1025;42.686;23.350;2022-08-21T02:04:22;19.03;;;17.23;;
2039;SDS011;1025;42.686;23.350;2022-08-21T02:06:49;20.40;;;18.50;;
2039;SDS011;1025;42.686;23.350;2022-08-21T02:09:16;20.63;;;18.73;;
2039;SDS011;1025;42.686;23.350;2022-08-21T02:11:42;21.20;;;19.60;;
2039;SDS011;1025;42.686;23.350;2022-08-21T02:14:11;21.60;;;19.37;;
2039;SDS011;1025;42.686;23.350;2022-08-21T02:16:38;19.10;;;17.70;;
2039;SDS011;1025;42.686;23.350;2022-08-21T02:19:05;18.73;;;17.17;;
2039;SDS011;1025;42.686;23.350;2022-08-21T02:21:31;19.90;;;18.23;;
2039;SDS011;1025;42.686;23.350;2022-08-21T02:23:58;20.20;;;18.50;;
2039;SDS011;1025;42.686;23.350;2022-08-21T02:26:25;19.10;;;17.70;;
2039;SDS011;1025;42.686;23.350;2022-08-21T02:28:51;19.33;;;17.60;;
2039;SDS011;1025;42.686;23.350;2022-08-21T02:31:19;19.77;;;18.07;;
2039;SDS011;1025;42.686;23.350;2022-08-21T02:33:46;19.30;;;18.00;;
2039;SDS011;1025;42.686;23.350;2022-08-21T02:36:12;20.57;;;18.57;;
2039;SDS011;1025;42.686;23.350;2022-08-21T02:38:40;21.73;;;19.57;;
2039;SDS011;1025;42.686;23.350;2022-08-21T02:41:08;22.27;;;19.87;;
2039;SDS011;1025;42.686;23.350;2022-08-21T02:43:34;21.03;;;19.03;;
2039;SDS011;1025;42.686;23.350;2022-08-21T02:46:02;20.60;;;18.70;;
2039;SDS011;1025;42.686;23.350;2022-08-21T02:48:31;19.03;;;17.70;;
2039;SDS011;1025;42.686;23.350;2022-08-21T02:50:58;19.80;;;17.83;;
2039;SDS011;1025;42.686;23.350;2022-08-21T02:53:26;19.93;;;18.23;;
2039;SDS011;1025;42.686;23.350;2022-08-21T02:55:53;20.60;;;18.63;;
2039;SDS011;1025;42.686;23.350;2022-08-21T02:58:20;17.47;;;15.93;;
2039;SDS011;1025;42.686;23.350;2022-08-21T03:00:47;18.70;;;17.03;;
2039;SDS011;1025;42.686;23.350;2022-08-21T03:03:14;16.87;;;15.33;;
2039;SDS011;1025;42.686;23.350;2022-08-21T03:05:42;16.27;;;14.63;;
2039;SDS011;1025;42.686;23.350;2022-08-21T03:08:11;15.43;;;14.37;;
2039;SDS011;1025;42.686;23.350;2022-08-21T03:10:38;15.47;;;14.20;;
2039;SDS011;1025;42.686;23.350;2022-08-21T03:13:05;13.33;;;11.80;;
2039;SDS011;1025;42.686;23.350;2022-08-21T03:15:32;12.00;;;11.20;;
2039;SDS011;1025;42.686;23.350;2022-08-21T03:17:58;13.47;;;12.07;;
2039;SDS011;1025;42.686;23.350;2022-08-21T03:20:26;13.13;;;12.13;;
2039;SDS011;1025;42.686;23.350;2022-08-21T03:22:54;16.63;;;15.30;;
2039;SDS011;1025;42.686;23.350;2022-08-21T03:25:21;11.23;;;10.23;;
2039;SDS011;1025;42.686;23.350;2022-08-21T03:27:48;13.33;;;12.40;;
2039;SDS011;1025;42.686;23.350;2022-08-21T03:30:16;14.93;;;13.47;;
2039;SDS011;1025;42.686;23.350;2022-08-21T03:32:43;13.87;;;12.57;;
2039;SDS011;1025;42.686;23.350;2022-08-21T03:35:11;13.40;;;12.50;;
2039;SDS011;1025;42.686;23.350;2022-08-21T03:37:37;12.83;;;11.93;;
2039;SDS011;1025;42.686;23.350;2022-08-21T03:40:07;15.37;;;13.20;;
2039;SDS011;1025;42.686;23.350;2022-08-21T03:42:35;14.60;;;13.40;;
2039;SDS011;1025;42.686;23.350;2022-08-21T03:45:02;11.93;;;11.03;;
2039;SDS011;1025;42.686;23.350;2022-08-21T03:47:29;12.07;;;10.97;;
2039;SDS011;1025;42.686;23.350;2022-08-21T03:49:57;9.40;;;8.80;;
2039;SDS011;1025;42.686;23.350;2022-08-21T03:52:24;9.63;;;9.13;;
2039;SDS011;1025;42.686;23.350;2022-08-21T03:54:51;9.87;;;9.17;;
2039;SDS011;1025;42.686;23.350;2022-08-21T03:57:19;9.60;;;8.77;;
2039;SDS011;1025;42.686;23.350;2022-08-21T03:59:46;9.97;;;9.27;;
2039;SDS011;1025;42.686;23.350;2022-08-21T04:02:13;8.13;;;7.53;;
2039;SDS011;1025;42.686;23.350;2022-08-21T04:04:42;7.20;;;6.77;;
2039;SDS011;1025;42.686;23.350;2022-08-21T04:07:09;7.17;;;6.63;;
2039;SDS011;1025;42.686;23.350;2022-08-21T04:09:35;25.23;;;7.73;;
2039;SDS011;1025;42.686;23.350;2022-08-21T04:12:02;7.03;;;6.43;;
2039;SDS011;1025;42.686;23.350;2022-08-21T04:14:30;6.87;;;6.37;;
2039;SDS011;1025;42.686;23.350;2022-08-21T04:16:57;6.33;;;5.37;;
2039;SDS011;1025;42.686;23.350;2022-08-21T04:19:24;6.13;;;5.70;;
2039;SDS011;1025;42.686;23.350;2022-08-21T04:21:51;7.17;;;6.50;;
2039;SDS011;1025;42.686;23.350;2022-08-21T04:24:18;6.17;;;5.67;;
2039;SDS011;1025;42.686;23.350;2022-08-21T04:26:45;6.10;;;5.70;;
2039;SDS011;1025;42.686;23.350;2022-08-21T04:29:12;7.03;;;6.50;;
2039;SDS011;1025;42.686;23.350;2022-08-21T04:31:40;5.83;;;5.53;;
2039;SDS011;1025;42.686;23.350;2022-08-21T04:34:08;5.03;;;4.73;;
2039;SDS011;1025;42.686;23.350;2022-08-21T04:36:35;6.90;;;6.43;;
2039;SDS011;1025;42.686;23.350;2022-08-21T04:39:01;7.40;;;6.87;;
2039;SDS011;1025;42.686;23.350;2022-08-21T04:41:28;6.33;;;5.93;;
2039;SDS011;1025;42.686;23.350;2022-08-21T04:43:55;6.87;;;6.40;;
2039;SDS011;1025;42.686;23.350;2022-08-21T04:46:22;6.07;;;5.77;;
2039;SDS011;1025;42.686;23.350;2022-08-21T04:48:50;6.20;;;5.80;;
2039;SDS011;1025;42.686;23.350;2022-08-21T04:51:17;7.77;;;7.30;;
2039;SDS011;1025;42.686;23.350;2022-08-21T04:53:45;7.57;;;6.97;;
2039;SDS011;1025;42.686;23.350;2022-08-21T04:56:14;7.57;;;7.07;;
2039;SDS011;1025;42.686;23.350;2022-08-21T04:58:41;6.33;;;6.03;;
2039;SDS011;1025;42.686;23.350;2022-08-21T05:01:09;8.50;;;7.80;;
2039;SDS011;1025;42.686;23.350;2022-08-21T05:03:37;6.60;;;6.20;;
2039;SDS011;1025;42.686;23.350;2022-08-21T05:06:06;7.77;;;7.27;;
2039;SDS011;1025;42.686;23.350;2022-08-21T05:08:33;8.27;;;7.57;;
2039;SDS011;1025;42.686;23.350;2022-08-21T05:11:00;7.30;;;6.90;;
2039;SDS011;1025;42.686;23.350;2022-08-21T05:13:27;6.60;;;6.20;;
2039;SDS011;1025;42.686;23.350;2022-08-21T05:15:53;7.57;;;7.03;;
2039;SDS011;1025;42.686;23.350;2022-08-21T05:18:20;7.37;;;6.97;;
2039;SDS011;1025;42.686;23.350;2022-08-21T05:20:47;6.70;;;6.30;;
2039;SDS011;1025;42.686;23.350;2022-08-21T05:23:15;8.77;;;8.07;;
2039;SDS011;1025;42.686;23.350;2022-08-21T05:25:42;7.50;;;6.90;;
2039;SDS011;1025;42.686;23.350;2022-08-21T05:28:09;6.70;;;6.07;;
2039;SDS011;1025;42.686;23.350;2022-08-21T05:30:37;8.57;;;7.90;;
2039;SDS011;1025;42.686;23.350;2022-08-21T05:33:04;7.87;;;7.23;;
2039;SDS011;1025;42.686;23.350;2022-08-21T05:35:31;8.57;;;7.87;;
2039;SDS011;1025;42.686;23.350;2022-08-21T05:37:59;7.07;;;6.67;;
2039;SDS011;1025;42.686;23.350;2022-08-21T05:40:27;6.27;;;5.70;;
2039;SDS011;1025;42.686;23.350;2022-08-21T05:42:54;7.17;;;6.57;;
2039;SDS011;1025;42.686;23.350;2022-08-21T05:45:21;7.67;;;7.17;;
2039;SDS011;1025;42.686;23.350;2022-08-21T05:47:48;6.03;;;5.53;;
2039;SDS011;1025;42.686;23.350;2022-08-21T05:50:15;6.90;;;6.30;;
2039;SDS011;1025;42.686;23.350;2022-08-21T05:52:41;7.30;;;6.80;;
2039;SDS011;1025;42.686;23.350;2022-08-21T05:55:08;5.90;;;5.50;;
2039;SDS011;1025;42.686;23.350;2022-08-21T05:57:36;6.47;;;5.87;;
2039;SDS011;1025;42.686;23.350;2022-08-21T06:00:06;5.83;;;5.33;;
2039;SDS011;1025;42.686;23.350;2022-08-21T06:02:33;6.77;;;6.27;;
2039;SDS011;1025;42.686;23.350;2022-08-21T06:05:00;5.40;;;5.10;;
2039;SDS011;1025;42.686;23.350;2022-08-21T06:07:27;6.33;;;5.90;;
2039;SDS011;1025;42.686;23.350;2022-08-21T06:09:54;5.80;;;5.47;;
2039;SDS011;1025;42.686;23.350;2022-08-21T06:12:20;7.63;;;6.97;;
2039;SDS011;1025;42.686;23.350;2022-08-21T06:14:49;6.93;;;6.23;;
2039;SDS011;1025;42.686;23.350;2022-08-21T06:17:17;5.90;;;5.40;;
2039;SDS011;1025;42.686;23.350;2022-08-21T06:19:43;5.70;;;5.50;;
2039;SDS011;1025;42.686;23.350;2022-08-21T06:22:10;7.10;;;6.13;;
2039;SDS011;1025;42.686;23.350;2022-08-21T06:24:36;6.13;;;5.83;;
2039;SDS011;1025;42.686;23.350;2022-08-21T06:27:04;6.70;;;6.20;;
2039;SDS011;1025;42.686;23.350;2022-08-21T06:29:30;4.63;;;4.33;;
2039;SDS011;1025;42.686;23.350;2022-08-21T06:31:59;5.53;;;5.23;;
2039;SDS011;1025;42.686;23.350;2022-08-21T06:34:25;5.47;;;5.10;;
2039;SDS011;1025;42.686;23.350;2022-08-21T06:36:52;5.50;;;5.10;;
2039;SDS011;1025;42.686;23.350;2022-08-21T06:39:19;5.60;;;5.30;;
2039;SDS011;1025;42.686;23.350;2022-08-21T06:41:45;8.83;;;7.70;;
2039;SDS011;1025;42.686;23.350;2022-08-21T06:44:12;9.10;;;5.33;;
2039;SDS011;1025;42.686;23.350;2022-08-21T06:46:41;4.00;;;3.80;;
2039;SDS011;1025;42.686;23.350;2022-08-21T06:49:09;6.30;;;5.70;;
2039;SDS011;1025;42.686;23.350;2022-08-21T06:51:36;6.70;;;6.20;;
2039;SDS011;1025;42.686;23.350;2022-08-21T06:54:02;4.87;;;4.57;;
2039;SDS011;1025;42.686;23.350;2022-08-21T06:56:29;5.30;;;5.00;;
2039;SDS011;1025;42.686;23.350;2022-08-21T06:58:55;6.60;;;6.17;;
2039;SDS011;1025;42.686;23.350;2022-08-21T07:01:23;5.17;;;4.70;;
2039;SDS011;1025;42.686;23.350;2022-08-21T07:03:50;6.03;;;5.73;;
2039;SDS011;1025;42.686;23.350;2022-08-21T07:06:18;4.90;;;4.70;;
2039;SDS011;1025;42.686;23.350;2022-08-21T07:08:45;8.60;;;4.80;;
2039;SDS011;1025;42.686;23.350;2022-08-21T07:11:13;5.03;;;4.73;;
2039;SDS011;1025;42.686;23.350;2022-08-21T07:13:41;5.63;;;5.13;;
2039;SDS011;1025;42.686;23.350;2022-08-21T07:16:07;6.70;;;4.17;;
2039;SDS011;1025;42.686;23.350;2022-08-21T07:18:34;5.57;;;5.07;;
2039;SDS011;1025;42.686;23.350;2022-08-21T07:21:01;4.30;;;4.10;;
2039;SDS011;1025;42.686;23.350;2022-08-21T07:23:31;5.30;;;4.90;;
2039;SDS011;1025;42.686;23.350;2022-08-21T07:25:58;4.53;;;4.33;;
2039;SDS011;1025;42.686;23.350;2022-08-21T07:28:25;6.70;;;4.60;;
2039;SDS011;1025;42.686;23.350;2022-08-21T07:30:53;3.93;;;3.57;;
2039;SDS011;1025;42.686;23.350;2022-08-21T07:33:20;4.33;;;4.13;;
2039;SDS011;1025;42.686;23.350;2022-08-21T07:35:46;4.50;;;4.20;;
2039;SDS011;1025;42.686;23.350;2022-08-21T07:38:13;4.37;;;4.07;;
2039;SDS011;1025;42.686;23.350;2022-08-21T07:40:41;4.23;;;3.83;;
2039;SDS011;1025;42.686;23.350;2022-08-21T07:43:08;4.03;;;3.83;;
2039;SDS011;1025;42.686;23.350;2022-08-21T07:45:34;3.67;;;3.37;;
2039;SDS011;1025;42.686;23.350;2022-08-21T07:48:01;5.07;;;4.63;;
2039;SDS011;1025;42.686;23.350;2022-08-21T07:50:28;4.40;;;4.10;;
2039;SDS011;1025;42.686;23.350;2022-08-21T07:52:54;3.93;;;3.47;;
2039;SDS011;1025;42.686;23.350;2022-08-21T07:55:21;4.50;;;3.50;;
2039;SDS011;1025;42.686;23.350;2022-08-21T07:57:49;3.93;;;3.73;;
2039;SDS011;1025;42.686;23.350;2022-08-21T08:00:17;5.07;;;4.77;;
2039;SDS011;1025;42.686;23.350;2022-08-21T08:02:45;4.23;;;3.93;;
2039;SDS011;1025;42.686;23.350;2022-08-21T08:05:14;4.87;;;4.57;;
2039;SDS011;1025;42.686;23.350;2022-08-21T08:07:41;4.10;;;3.80;;
2039;SDS011;1025;42.686;23.350;2022-08-21T08:10:08;5.63;;;5.13;;
2039;SDS011;1025;42.686;23.350;2022-08-21T08:12:35;5.43;;;4.73;;
2039;SDS011;1025;42.686;23.350;2022-08-21T08:15:04;4.40;;;4.20;;
2039;SDS011;1025;42.686;23.350;2022-08-21T08:17:32;6.37;;;5.97;;
2039;SDS011;1025;42.686;23.350;2022-08-21T08:19:58;5.60;;;5.20;;
2039;SDS011;1025;42.686;23.350;2022-08-21T08:22:25;6.33;;;5.30;;
2039;SDS011;1025;42.686;23.350;2022-08-21T08:24:52;5.33;;;4.93;;
2039;SDS011;1025;42.686;23.350;2022-08-21T08:27:19;5.50;;;5.20;;
2039;SDS011;1025;42.686;23.350;2022-08-21T08:29:47;6.73;;;6.13;;
2039;SDS011;1025;42.686;23.350;2022-08-21T08:32:15;5.83;;;5.53;;
2039;SDS011;1025;42.686;23.350;2022-08-21T08:34:41;9.17;;;7.23;;
2039;SDS011;1025;42.686;23.350;2022-08-21T08:37:08;5.10;;;4.70;;
2039;SDS011;1025;42.686;23.350;2022-08-21T08:39:36;6.40;;;5.97;;
2039;SDS011;1025;42.686;23.350;2022-08-21T08:42:05;6.20;;;5.87;;
2039;SDS011;1025;42.686;23.350;2022-08-21T08:44:32;7.50;;;6.63;;
2039;SDS011;1025;42.686;23.350;2022-08-21T08:46:59;7.13;;;6.63;;
2039;SDS011;1025;42.686;23.350;2022-08-21T08:49:29;5.83;;;5.53;;
2039;SDS011;1025;42.686;23.350;2022-08-21T08:51:57;6.87;;;6.17;;
2039;SDS011;1025;42.686;23.350;2022-08-21T08:54:27;6.23;;;5.83;;
2039;SDS011;1025;42.686;23.350;2022-08-21T08:56:57;6.00;;;5.30;;
2039;SDS011;1025;42.686;23.350;2022-08-21T08:59:25;5.27;;;4.87;;
2039;SDS011;1025;42.686;23.350;2022-08-21T09:01:53;5.13;;;4.10;;
2039;SDS011;1025;42.686;23.350;2022-08-21T09:04:20;5.10;;;4.70;;
2039;SDS011;1025;42.686;23.350;2022-08-21T09:09:38;4.47;;;4.17;;
2039;SDS011;1025;42.686;23.350;2022-08-21T09:12:08;3.87;;;3.67;;
2039;SDS011;1025;42.686;23.350;2022-08-21T09:14:41;4.30;;;4.10;;
2039;SDS011;1025;42.686;23.350;2022-08-21T09:17:14;3.20;;;3.03;;
2039;SDS011;1025;42.686;23.350;2022-08-21T09:19:47;3.20;;;2.97;;
2039;SDS011;1025;42.686;23.350;2022-08-21T09:22:19;4.20;;;3.90;;
2039;SDS011;1025;42.686;23.350;2022-08-21T09:24:51;2.87;;;2.77;;
2039;SDS011;1025;42.686;23.350;2022-08-21T09:27:20;3.77;;;3.57;;
2039;SDS011;1025;42.686;23.350;2022-08-21T09:29:48;4.87;;;4.57;;
2039;SDS011;1025;42.686;23.350;2022-08-21T09:32:17;3.60;;;3.40;;
2039;SDS011;1025;42.686;23.350;2022-08-21T09:34:54;4.73;;;4.43;;
2039;SDS011;1025;42.686;23.350;2022-08-21T09:37:21;4.40;;;4.13;;
2039;SDS011;1025;42.686;23.350;2022-08-21T09:39:47;5.03;;;4.20;;
2039;SDS011;1025;42.686;23.350;2022-08-21T09:42:22;4.53;;;3.97;;
2039;SDS011;1025;42.686;23.350;2022-08-21T09:44:48;9.30;;;5.63;;
2039;SDS011;1025;42.686;23.350;2022-08-21T09:47:18;5.13;;;3.80;;
2039;SDS011;1025;42.686;23.350;2022-08-21T09:49:45;3.73;;;3.40;;
2039;SDS011;1025;42.686;23.350;2022-08-21T09:52:15;3.57;;;3.37;;
2039;SDS011;1025;42.686;23.350;2022-08-21T09:54:42;3.50;;;3.30;;
2039;SDS011;1025;42.686;23.350;2022-08-21T09:57:12;3.87;;;3.57;;
2039;SDS011;1025;42.686;23.350;2022-08-21T10:00:06;4.27;;;3.87;;
2039;SDS011;1025;42.686;23.350;2022-08-21T10:02:34;4.23;;;3.90;;
2039;SDS011;1025;42.686;23.350;2022-08-21T10:05:02;3.70;;;3.40;;
2039;SDS011;1025;42.686;23.350;2022-08-21T10:07:30;3.60;;;3.40;;
2039;SDS011;1025;42.686;23.350;2022-08-21T10:09:58;9.50;;;4.40;;
2039;SDS011;1025;42.686;23.350;2022-08-21T10:12:25;4.33;;;4.07;;
2039;SDS011;1025;42.686;23.350;2022-08-21T10:14:56;3.83;;;3.53;;
2039;SDS011;1025;42.686;23.350;2022-08-21T10:17:30;3.20;;;3.00;;
2039;SDS011;1025;42.686;23.350;2022-08-21T10:20:02;4.73;;;4.40;;
2039;SDS011;1025;42.686;23.350;2022-08-21T10:22:33;8.90;;;3.90;;
2039;SDS011;1025;42.686;23.350;2022-08-21T10:25:05;3.53;;;3.27;;
2039;SDS011;1025;42.686;23.350;2022-08-21T10:27:33;10.00;;;3.80;;
2039;SDS011;1025;42.686;23.350;2022-08-21T10:30:03;3.93;;;3.53;;
2039;SDS011;1025;42.686;23.350;2022-08-21T10:32:42;3.90;;;3.60;;
2039;SDS011;1025;42.686;23.350;2022-08-21T10:35:11;3.57;;;3.27;;
2039;SDS011;1025;42.686;23.350;2022-08-21T10:37:44;4.37;;;4.07;;
2039;SDS011;1025;42.686;23.350;2022-08-21T10:40:14;4.33;;;4.03;;
2039;SDS011;1025;42.686;23.350;2022-08-21T10:42:46;4.33;;;4.00;;
2039;SDS011;1025;42.686;23.350;2022-08-21T10:45:15;3.83;;;3.50;;
2039;SDS011;1025;42.686;23.350;2022-08-21T10:47:46;3.23;;;3.03;;
2039;SDS011;1025;42.686;23.350;2022-08-21T10:50:17;3.57;;;3.33;;
2039;SDS011;1025;42.686;23.350;2022-08-21T10:52:57;3.50;;;3.20;;
2039;SDS011;1025;42.686;23.350;2022-08-21T10:55:31;4.57;;;3.93;;
2039;SDS011;1025;42.686;23.350;2022-08-21T10:57:58;2.40;;;2.30;;
2039;SDS011;1025;42.686;23.350;2022-08-21T11:00:26;2.50;;;2.40;;
2039;SDS011;1025;42.686;23.350;2022-08-21T11:02:57;3.40;;;3.20;;
2039;SDS011;1025;42.686;23.350;2022-08-21T11:05:25;3.63;;;3.43;;
2039;SDS011;1025;42.686;23.350;2022-08-21T11:07:54;5.03;;;3.37;;
2039;SDS011;1025;42.686;23.350;2022-08-21T11:10:23;2.63;;;2.50;;
2039;SDS011;1025;42.686;23.350;2022-08-21T11:12:52;3.43;;;3.23;;
2039;SDS011;1025;42.686;23.350;2022-08-21T11:15:25;3.80;;;3.47;;
2039;SDS011;1025;42.686;23.350;2022-08-21T11:17:54;2.83;;;2.73;;
2039;SDS011;1025;42.686;23.350;2022-08-21T11:20:26;2.93;;;2.67;;
2039;SDS011;1025;42.686;23.350;2022-08-21T11:22:56;2.73;;;2.53;;
2039;SDS011;1025;42.686;23.350;2022-08-21T11:25:26;7.70;;;3.20;;
2039;SDS011;1025;42.686;23.350;2022-08-21T11:27:54;3.47;;;2.80;;
2039;SDS011;1025;42.686;23.350;2022-08-21T11:30:23;2.30;;;2.20;;
2039;SDS011;1025;42.686;23.350;2022-08-21T11:32:55;2.57;;;2.47;;
2039;SDS011;1025;42.686;23.350;2022-08-21T11:35:26;3.10;;;3.00;;
2039;SDS011;1025;42.686;23.350;2022-08-21T11:37:59;2.83;;;2.07;;
2039;SDS011;1025;42.686;23.350;2022-08-21T11:40:33;4.00;;;2.67;;
2039;SDS011;1025;42.686;23.350;2022-08-21T11:43:02;2.13;;;2.03;;
2039;SDS011;1025;42.686;23.350;2022-08-21T11:45:36;2.77;;;2.63;;
2039;SDS011;1025;42.686;23.350;2022-08-21T11:48:07;2.70;;;2.60;;
2039;SDS011;1025;42.686;23.350;2022-08-21T11:50:38;2.90;;;2.70;;
2039;SDS011;1025;42.686;23.350;2022-08-21T11:53:08;1.70;;;1.60;;
2039;SDS011;1025;42.686;23.350;2022-08-21T11:55:36;2.40;;;2.30;;
2039;SDS011;1025;42.686;23.350;2022-08-21T11:58:05;3.57;;;3.27;;
2039;SDS011;1025;42.686;23.350;2022-08-21T12:00:34;2.73;;;2.63;;
2039;SDS011;1025;42.686;23.350;2022-08-21T12:03:06;2.60;;;2.50;;
2039;SDS011;1025;42.686;23.350;2022-08-21T12:05:35;3.23;;;3.03;;
2039;SDS011;1025;42.686;23.350;2022-08-21T12:08:05;2.57;;;2.33;;
2039;SDS011;1025;42.686;23.350;2022-08-21T12:10:33;3.20;;;3.00;;
2039;SDS011;1025;42.686;23.350;2022-08-21T12:13:05;3.63;;;3.33;;
2039;SDS011;1025;42.686;23.350;2022-08-21T12:15:34;3.47;;;3.27;;
2039;SDS011;1025;42.686;23.350;2022-08-21T12:18:01;4.07;;;3.60;;
2039;SDS011;1025;42.686;23.350;2022-08-21T12:20:39;2.67;;;2.47;;
2039;SDS011;1025;42.686;23.350;2022-08-21T12:23:16;3.90;;;3.60;;
2039;SDS011;1025;42.686;23.350;2022-08-21T12:25:44;3.13;;;3.00;;
2039;SDS011;1025;42.686;23.350;2022-08-21T12:28:12;2.50;;;2.40;;
2039;SDS011;1025;42.686;23.350;2022-08-21T12:30:41;3.17;;;2.97;;
2039;SDS011;1025;42.686;23.350;2022-08-21T12:33:18;3.20;;;2.90;;
2039;SDS011;1025;42.686;23.350;2022-08-21T12:35:46;3.80;;;3.60;;
2039;SDS011;1025;42.686;23.350;2022-08-21T12:38:17;2.80;;;2.70;;
2039;SDS011;1025;42.686;23.350;2022-08-21T12:40:47;3.27;;;2.90;;
2039;SDS011;1025;42.686;23.350;2022-08-21T12:43:15;4.40;;;3.73;;
2039;SDS011;1025;42.686;23.350;2022-08-21T12:45:45;2.60;;;2.50;;
2039;SDS011;1025;42.686;23.350;2022-08-21T12:48:14;3.07;;;2.40;;
2039;SDS011;1025;42.686;23.350;2022-08-21T12:50:44;3.00;;;2.90;;
2039;SDS011;1025;42.686;23.350;2022-08-21T12:53:13;2.70;;;2.60;;
2039;SDS011;1025;42.686;23.350;2022-08-21T12:55:43;4.10;;;3.17;;
2039;SDS011;1025;42.686;23.350;2022-08-21T12:58:16;3.87;;;3.57;;
2039;SDS011;1025;42.686;23.350;2022-08-21T13:00:44;3.20;;;3.00;;
2039;SDS011;1025;42.686;23.350;2022-08-21T13:03:13;2.70;;;2.60;;
2039;SDS011;1025;42.686;23.350;2022-08-21T13:05:40;2.00;;;1.90;;
2039;SDS011;1025;42.686;23.350;2022-08-21T13:08:07;2.70;;;2.60;;
2039;SDS011;1025;42.686;23.350;2022-08-21T13:10:35;2.57;;;2.47;;
2039;SDS011;1025;42.686;23.350;2022-08-21T13:13:05;2.70;;;2.50;;
2039;SDS011;1025;42.686;23.350;2022-08-21T13:15:34;2.77;;;2.57;;
2039;SDS011;1025;42.686;23.350;2022-08-21T13:18:01;1.93;;;1.83;;
2039;SDS011;1025;42.686;23.350;2022-08-21T13:20:29;3.40;;;3.20;;
2039;SDS011;1025;42.686;23.350;2022-08-21T13:22:56;5.40;;;2.90;;
2039;SDS011;1025;42.686;23.350;2022-08-21T13:25:26;2.60;;;2.50;;
2039;SDS011;1025;42.686;23.350;2022-08-21T13:27:57;2.90;;;2.60;;
2039;SDS011;1025;42.686;23.350;2022-08-21T13:30:25;2.77;;;2.57;;
2039;SDS011;1025;42.686;23.350;2022-08-21T13:32:57;2.10;;;1.90;;
2039;SDS011;1025;42.686;23.350;2022-08-21T13:35:25;2.77;;;2.60;;
2039;SDS011;1025;42.686;23.350;2022-08-21T13:37:53;2.70;;;2.50;;
2039;SDS011;1025;42.686;23.350;2022-08-21T13:40:29;2.67;;;2.47;;
2039;SDS011;1025;42.686;23.350;2022-08-21T13:42:56;2.83;;;2.63;;
2039;SDS011;1025;42.686;23.350;2022-08-21T13:45:24;7.00;;;2.53;;
2039;SDS011;1025;42.686;23.350;2022-08-21T13:47:53;2.30;;;2.20;;
2039;SDS011;1025;42.686;23.350;2022-08-21T13:50:20;2.90;;;2.70;;
2039;SDS011;1025;42.686;23.350;2022-08-21T13:52:49;3.00;;;2.83;;
2039;SDS011;1025;42.686;23.350;2022-08-21T13:55:19;10.93;;;3.03;;
2039;SDS011;1025;42.686;23.350;2022-08-21T13:57:46;3.93;;;2.70;;
2039;SDS011;1025;42.686;23.350;2022-08-21T14:00:14;2.33;;;2.23;;
2039;SDS011;1025;42.686;23.350;2022-08-21T14:02:42;2.63;;;2.43;;
2039;SDS011;1025;42.686;23.350;2022-08-21T14:05:16;2.63;;;2.43;;
2039;SDS011;1025;42.686;23.350;2022-08-21T14:07:43;3.13;;;2.90;;
2039;SDS011;1025;42.686;23.350;2022-08-21T14:10:13;3.20;;;2.87;;
2039;SDS011;1025;42.686;23.350;2022-08-21T14:12:41;3.40;;;2.43;;
2039;SDS011;1025;42.686;23.350;2022-08-21T14:15:08;3.10;;;2.90;;
2039;SDS011;1025;42.686;23.350;2022-08-21T14:17:36;3.20;;;3.00;;
2039;SDS011;1025;42.686;23.350;2022-08-21T14:20:03;2.63;;;2.53;;
2039;SDS011;1025;42.686;23.350;2022-08-21T14:22:37;3.87;;;3.60;;
2039;SDS011;1025;42.686;23.350;2022-08-21T14:25:05;5.83;;;2.70;;
2039;SDS011;1025;42.686;23.350;2022-08-21T14:27:32;3.00;;;2.90;;
2039;SDS011;1025;42.686;23.350;2022-08-21T14:30:00;3.07;;;2.87;;
2039;SDS011;1025;42.686;23.350;2022-08-21T14:32:28;4.20;;;3.03;;
2039;SDS011;1025;42.686;23.350;2022-08-21T14:34:56;3.27;;;3.07;;
2039;SDS011;1025;42.686;23.350;2022-08-21T14:37:23;3.13;;;2.90;;
2039;SDS011;1025;42.686;23.350;2022-08-21T14:39:51;5.90;;;3.07;;
2039;SDS011;1025;42.686;23.350;2022-08-21T14:42:18;2.90;;;2.60;;
2039;SDS011;1025;42.686;23.350;2022-08-21T14:44:45;3.23;;;2.97;;
2039;SDS011;1025;42.686;23.350;2022-08-21T14:47:11;3.00;;;2.80;;
2039;SDS011;1025;42.686;23.350;2022-08-21T14:49:38;2.30;;;2.20;;
2039;SDS011;1025;42.686;23.350;2022-08-21T14:52:05;2.50;;;2.40;;
2039;SDS011;1025;42.686;23.350;2022-08-21T14:54:31;2.80;;;2.60;;
2039;SDS011;1025;42.686;23.350;2022-08-21T14:57:00;3.10;;;3.00;;
2039;SDS011;1025;42.686;23.350;2022-08-21T14:59:27;4.40;;;3.70;;
2039;SDS011;1025;42.686;23.350;2022-08-21T15:01:54;3.70;;;3.50;;
2039;SDS011;1025;42.686;23.350;2022-08-21T15:04:21;3.10;;;2.87;;